Time;durP1;ratioP1;P1;durP2;ratioP2;P2;SDS_P1;SDS_P2;PMS_P1;PMS_P2;Temp;Humidity;BMP_temperature;BMP_pressure;BME280_temperature;BME280_humidity;BME280_pressure;Samples;Min_cycle;Max_cycle;Signal;HPM_P1;HPM_P2
2022/12/04 00:00:43;;;;;;;29.93;11.30;;;;;;;-145.69;100.00;52775.13;5114599;28;20204;-84
2022/12/04 00:03:10;;;;;;;27.93;10.50;;;;;;;-145.69;100.00;52723.63;5114334;28;20198;-83
2022/12/04 00:05:36;;;;;;;29.07;10.83;;;;;;;-145.69;100.00;52753.34;5114581;28;20573;-83
2022/12/04 00:08:03;;;;;;;27.73;11.27;;;;;;;-145.69;100.00;52729.56;5114082;28;20293;-84
2022/12/04 00:10:30;;;;;;;26.87;10.70;;;;;;;-145.69;100.00;52739.47;5115880;28;20197;-82
2022/12/04 00:12:57;;;;;;;32.17;11.60;;;;;;;-145.69;100.00;52757.31;5118212;28;20244;-84
2022/12/04 00:15:24;;;;;;;29.17;10.30;;;;;;;-145.69;100.00;52759.28;5118707;28;20288;-84
2022/12/04 00:17:52;;;;;;;26.10;10.50;;;;;;;-145.69;100.00;52749.38;5118970;28;20192;-84
2022/12/04 00:20:18;;;;;;;27.23;10.07;;;;;;;-145.69;100.00;52749.38;5117676;28;20212;-84
2022/12/04 00:22:45;;;;;;;29.50;11.00;;;;;;;-145.69;100.00;52735.50;5114883;28;20569;-84
2022/12/04 00:25:11;;;;;;;28.30;10.93;;;;;;;-145.69;100.00;52769.19;5103350;28;20222;-83
2022/12/04 00:27:38;;;;;;;27.83;10.87;;;;;;;-145.69;100.00;52781.06;5095912;28;20198;-83
2022/12/04 00:30:05;;;;;;;28.97;11.23;;;;;;;-145.69;100.00;52753.34;5097036;28;20189;-84
2022/12/04 00:32:32;;;;;;;30.63;12.03;;;;;;;-145.69;100.00;52727.59;5114855;28;20580;-84
2022/12/04 00:35:00;;;;;;;28.37;10.87;;;;;;;-145.69;100.00;52759.28;5114940;28;20226;-84
2022/12/04 00:37:27;;;;;;;25.07;9.83;;;;;;;-145.69;100.00;52753.34;5114710;28;20665;-84
2022/12/04 00:39:53;;;;;;;29.53;11.07;;;;;;;-145.69;100.00;52737.50;5112793;28;20222;-84
2022/12/04 00:42:20;;;;;;;31.20;11.33;;;;;;;-145.69;100.00;52743.44;5114635;28;20202;-84
2022/12/04 00:44:46;;;;;;;25.60;10.20;;;;;;;-145.69;100.00;52794.94;5113432;28;20245;-84
2022/12/04 00:47:12;;;;;;;26.00;10.73;;;;;;;-145.69;100.00;52765.22;5113576;28;20198;-83
2022/12/04 00:49:39;;;;;;;25.03;9.63;;;;;;;-145.69;100.00;52775.13;5112445;28;20202;-83
2022/12/04 00:52:07;;;;;;;27.03;10.30;;;;;;;-145.69;100.00;52757.31;5113028;28;20195;-82
2022/12/04 00:54:33;;;;;;;22.27;9.23;;;;;;;-145.69;100.00;52765.22;5113675;28;20204;-83
2022/12/04 00:57:00;;;;;;;24.20;9.73;;;;;;;-145.69;100.00;52749.38;5113942;28;20210;-83
2022/12/04 00:59:26;;;;;;;26.53;9.73;;;;;;;-145.69;100.00;52749.38;5112467;28;20198;-83
2022/12/04 01:01:53;;;;;;;25.17;10.77;;;;;;;-145.69;100.00;52761.25;5113017;28;20192;-83
2022/12/04 01:04:19;;;;;;;25.73;10.47;;;;;;;-145.69;100.00;52753.34;5112575;28;20198;-84
2022/12/04 01:06:46;;;;;;;25.90;10.17;;;;;;;-145.69;100.00;52792.94;5110861;28;20225;-82
2022/12/04 01:09:14;;;;;;;24.70;10.03;;;;;;;-145.69;100.00;52751.34;5111188;28;20190;-84
2022/12/04 01:11:41;;;;;;;25.47;9.47;;;;;;;-145.69;100.00;52773.16;5111330;28;20190;-83
2022/12/04 01:14:07;;;;;;;25.43;9.83;;;;;;;-145.69;100.00;52761.25;5109712;28;20226;-84
2022/12/04 01:16:35;;;;;;;23.60;10.27;;;;;;;-145.69;100.00;52745.41;5110302;28;20189;-83
2022/12/04 01:19:03;;;;;;;26.43;10.37;;;;;;;-145.69;100.00;52747.41;5107651;28;20208;-83
2022/12/04 01:21:30;;;;;;;31.87;11.27;;;;;;;-145.69;100.00;52769.19;5107448;28;20197;-84
2022/12/04 01:23:57;;;;;;;28.80;10.53;;;;;;;-145.69;100.00;52727.59;5108787;28;20198;-84
2022/12/04 01:26:26;;;;;;;28.53;10.77;;;;;;;-145.69;100.00;52763.25;5105563;28;20209;-84
2022/12/04 01:28:52;;;;;;;23.70;9.80;;;;;;;-145.69;100.00;52761.25;5108041;28;20201;-84
2022/12/04 01:31:21;;;;;;;25.17;10.87;;;;;;;-145.69;100.00;52751.34;5105888;28;20213;-84
2022/12/04 01:33:49;;;;;;;27.83;10.13;;;;;;;-145.69;100.00;52737.50;5106106;28;20263;-82
2022/12/04 01:36:18;;;;;;;26.93;9.93;;;;;;;-145.69;100.00;52745.41;5105788;28;20233;-83
2022/12/04 01:38:45;;;;;;;28.17;10.47;;;;;;;-145.69;100.00;52753.34;5105678;28;20194;-84
2022/12/04 01:41:13;;;;;;;30.77;10.97;;;;;;;-145.69;100.00;52729.56;5104504;28;20200;-83
2022/12/04 01:43:41;;;;;;;26.20;9.67;;;;;;;-145.69;100.00;52775.13;5105049;28;20296;-84
2022/12/04 01:46:08;;;;;;;30.00;10.07;;;;;;;-145.69;100.00;52741.47;5105235;28;20695;-84
2022/12/04 01:48:37;;;;;;;25.40;9.90;;;;;;;-145.69;100.00;52755.31;5104503;28;20198;-83
2022/12/04 01:51:08;;;;;;;22.57;9.53;;;;;;;-145.69;100.00;52769.19;5103557;28;20201;-84
2022/12/04 01:53:39;;;;;;;24.50;9.93;;;;;;;-145.69;100.00;52749.38;5102661;28;20226;-84
2022/12/04 01:56:07;;;;;;;24.67;9.67;;;;;;;-145.69;100.00;52757.31;5102925;28;20198;-84
2022/12/04 01:58:39;;;;;;;26.90;10.00;;;;;;;-145.69;100.00;52769.19;5102835;28;20664;-84
2022/12/04 02:01:08;;;;;;;27.33;10.80;;;;;;;-145.69;100.00;52767.19;5106179;28;20238;-83
2022/12/04 02:03:35;;;;;;;21.53;9.00;;;;;;;-145.69;100.00;52767.19;5102329;28;20198;-84
2022/12/04 02:06:02;;;;;;;23.03;9.27;;;;;;;-145.69;100.00;52753.34;5104282;28;20220;-84
2022/12/04 02:08:29;;;;;;;28.47;10.37;;;;;;;-145.69;100.00;52761.25;5104258;28;20202;-83
2022/12/04 02:11:06;;;;;;;23.70;9.73;;;;;;;-145.69;100.00;52725.63;5104435;28;20198;-82
2022/12/04 02:13:42;;;;;;;24.50;9.50;;;;;;;-145.69;100.00;52755.31;5099899;28;20229;-82
2022/12/04 02:16:18;;;;;;;25.03;10.17;;;;;;;-145.69;100.00;52773.16;5101093;28;20206;-83
2022/12/04 02:18:55;;;;;;;26.33;9.90;;;;;;;-145.69;100.00;52741.47;5100507;28;20202;-82
2022/12/04 02:21:31;;;;;;;26.73;11.13;;;;;;;-145.69;100.00;52763.25;5079822;28;20217;-83
2022/12/04 02:24:07;;;;;;;24.97;10.37;;;;;;;-145.69;100.00;52757.31;5080134;28;20214;-83
2022/12/04 02:26:43;;;;;;;25.80;10.80;;;;;;;-145.69;100.00;52757.31;5081204;28;20676;-82
2022/12/04 02:29:21;;;;;;;26.47;9.93;;;;;;;-145.69;100.00;52769.19;5079306;28;20210;-83
2022/12/04 02:31:52;;;;;;;23.03;10.33;;;;;;;-145.69;100.00;52753.34;5078970;28;20214;-83
2022/12/04 02:34:25;;;;;;;23.30;9.67;;;;;;;-145.69;100.00;52739.47;5078795;28;20230;-83
2022/12/04 02:36:57;;;;;;;24.73;9.73;;;;;;;-145.69;100.00;52761.25;5082932;28;20289;-83
2022/12/04 02:39:31;;;;;;;28.63;9.90;;;;;;;-145.69;100.00;52749.38;5083685;28;20195;-83
2022/12/04 02:42:03;;;;;;;23.87;9.77;;;;;;;-145.69;100.00;52783.06;5082374;28;20209;-83
2022/12/04 02:44:35;;;;;;;23.33;9.77;;;;;;;-145.69;100.00;52767.19;5082731;28;20217;-83
2022/12/04 02:47:12;;;;;;;24.67;10.23;;;;;;;-145.69;100.00;52789.00;5098766;28;20197;-83
2022/12/04 02:49:45;;;;;;;29.43;10.17;;;;;;;-145.69;100.00;52739.47;5104049;28;20205;-84
2022/12/04 02:52:16;;;;;;;23.50;9.50;;;;;;;-145.69;100.00;52757.31;5101852;28;20202;-84
2022/12/04 02:54:46;;;;;;;23.10;8.77;;;;;;;-145.69;100.00;52773.16;5101991;28;20226;-83
2022/12/04 02:57:20;;;;;;;24.50;10.37;;;;;;;-145.69;100.00;52737.50;5100519;28;20208;-83
2022/12/04 02:59:50;;;;;;;26.80;9.77;;;;;;;-145.69;100.00;52733.53;5080391;28;20203;-83
2022/12/04 03:02:23;;;;;;;26.27;9.50;;;;;;;-145.69;100.00;52737.50;5079263;28;20210;-83
2022/12/04 03:04:51;;;;;;;22.90;9.60;;;;;;;-145.69;100.00;52721.66;5080325;28;20280;-84
2022/12/04 03:07:24;;;;;;;24.97;9.90;;;;;;;-145.69;100.00;52753.34;5080604;28;20205;-84
2022/12/04 03:09:55;;;;;;;25.42;11.40;;;;;;;-145.69;100.00;52777.09;5090356;28;20460;-83
2022/12/04 03:12:28;;;;;;;26.50;10.73;;;;;;;-145.69;100.00;52751.34;5100570;28;20193;-84
2022/12/04 03:15:02;;;;;;;27.93;10.37;;;;;;;-145.69;100.00;52767.19;5100457;28;20206;-83
2022/12/04 03:17:33;;;;;;;23.57;10.27;;;;;;;-145.69;100.00;52729.56;5099251;28;20198;-82
2022/12/04 03:20:04;;;;;;;22.53;9.67;;;;;;;-145.69;100.00;52719.66;5097880;28;20198;-82
2022/12/04 03:22:33;;;;;;;20.83;8.90;;;;;;;-145.69;100.00;52761.25;5099200;28;20198;-83
2022/12/04 03:25:03;;;;;;;24.77;10.27;;;;;;;-145.69;100.00;52761.25;5099078;28;20198;-83
2022/12/04 03:27:38;;;;;;;24.20;10.27;;;;;;;-145.69;100.00;52753.34;5100360;28;20202;-83
2022/12/04 03:30:10;;;;;;;21.77;9.30;;;;;;;-145.69;100.00;52719.66;5098389;28;20200;-85
2022/12/04 03:32:43;;;;;;;25.10;9.60;;;;;;;-145.69;100.00;52733.53;5095048;28;20866;-84
2022/12/04 03:35:15;;;;;;;23.57;9.50;;;;;;;-145.69;100.00;52721.66;5099676;28;20230;-84
2022/12/04 03:37:55;;;;;;;22.53;9.47;;;;;;;-145.69;100.00;52779.09;5100238;28;20207;-83
2022/12/04 03:40:26;;;;;;;21.07;8.67;;;;;;;-145.69;100.00;52804.84;5099317;28;20205;-84
2022/12/04 03:42:59;;;;;;;19.80;8.87;;;;;;;-145.69;100.00;52757.31;5097454;28;20209;-82
2022/12/04 03:45:30;;;;;;;19.13;7.97;;;;;;;-145.69;100.00;52749.38;5098278;28;20194;-83
2022/12/04 03:48:03;;;;;;;20.87;9.10;;;;;;;-145.69;100.00;52769.19;5095964;28;20209;-85
2022/12/04 03:50:37;;;;;;;24.67;10.10;;;;;;;-145.69;100.00;52737.50;5097421;28;20615;-84
2022/12/04 03:53:09;;;;;;;25.00;10.17;;;;;;;-145.69;100.00;52783.06;5098522;28;20230;-84
2022/12/04 03:55:41;;;;;;;25.43;9.93;;;;;;;-145.69;100.00;52745.41;5102347;28;20198;-84
2022/12/04 03:58:13;;;;;;;30.00;10.60;;;;;;;-145.69;100.00;52775.13;5101550;28;20194;-84
2022/12/04 04:00:42;;;;;;;29.97;11.00;;;;;;;-145.69;100.00;52745.41;5102688;28;20201;-84
2022/12/04 04:03:15;;;;;;;26.70;10.07;;;;;;;-145.69;100.00;52765.22;5103652;28;20196;-84
2022/12/04 04:05:45;;;;;;;26.90;10.73;;;;;;;-145.69;100.00;52765.22;5103047;28;20209;-83
2022/12/04 04:08:26;;;;;;;24.90;10.57;;;;;;;-145.69;100.00;52771.16;5102075;28;20194;-84
2022/12/04 04:10:55;;;;;;;25.53;10.13;;;;;;;-145.69;100.00;52749.38;5100065;28;20665;-84
2022/12/04 04:24:40;;;;;;;23.97;9.90;;;;;;;-145.69;100.00;52781.06;5104165;28;20209;-82
2022/12/04 04:27:06;;;;;;;18.90;8.20;;;;;;;-145.69;100.00;52777.09;5104059;28;20209;-83
2022/12/04 04:29:33;;;;;;;21.17;9.13;;;;;;;-145.69;100.00;52745.41;5101481;28;20201;-83
2022/12/04 04:32:07;;;;;;;19.37;8.73;;;;;;;-145.69;100.00;52753.34;5079491;28;20654;-84
2022/12/04 04:34:40;;;;;;;20.73;8.67;;;;;;;-145.69;100.00;52721.66;5093667;28;20230;-84
2022/12/04 04:37:13;;;;;;;19.67;8.20;;;;;;;-145.69;100.00;52763.25;5102141;28;20202;-84
2022/12/04 04:39:46;;;;;;;19.37;8.27;;;;;;;-145.69;100.00;52802.84;5102535;28;20202;-83
2022/12/04 04:42:21;;;;;;;23.67;9.50;;;;;;;-145.69;100.00;52781.06;5102640;28;20220;-84
2022/12/04 04:44:53;;;;;;;20.27;8.43;;;;;;;-145.69;100.00;52733.53;5098530;28;20201;-84
2022/12/04 04:47:29;;;;;;;19.80;9.03;;;;;;;-145.69;100.00;52761.25;5102486;28;20205;-84
2022/12/04 04:49:57;;;;;;;22.13;8.97;;;;;;;-145.69;100.00;52753.34;5106427;28;20186;-83
2022/12/04 04:52:24;;;;;;;20.03;8.43;;;;;;;-145.69;100.00;52769.19;5108075;28;20213;-83
2022/12/04 04:54:51;;;;;;;20.33;9.03;;;;;;;-145.69;100.00;52785.03;5107453;28;20225;-84
2022/12/04 04:57:26;;;;;;;22.73;9.00;;;;;;;-145.69;100.00;52767.19;5105868;28;20217;-84
2022/12/04 04:59:53;;;;;;;25.47;9.47;;;;;;;-145.69;100.00;52757.31;5103335;28;20205;-84
2022/12/04 05:02:21;;;;;;;21.23;9.13;;;;;;;-145.69;100.00;52763.25;5099528;28;20198;-85
2022/12/04 05:04:48;;;;;;;21.43;8.80;;;;;;;-145.69;100.00;52751.34;5099369;28;20221;-84
2022/12/04 05:07:14;;;;;;;22.63;9.43;;;;;;;-145.69;100.00;52749.38;5102575;28;20202;-83
2022/12/04 05:09:41;;;;;;;23.50;9.83;;;;;;;-145.69;100.00;52777.09;5108127;28;20199;-83
2022/12/04 05:12:07;;;;;;;22.47;8.53;;;;;;;-145.69;100.00;52763.25;5108519;28;20178;-83
2022/12/04 05:14:34;;;;;;;26.23;9.63;;;;;;;-145.69;100.00;52790.97;5106556;28;20222;-82
2022/12/04 05:17:00;;;;;;;20.80;8.37;;;;;;;-145.69;100.00;52765.22;5108370;28;20209;-83
2022/12/04 05:22:16;;;;;;;20.67;9.30;;;;;;;-145.69;100.00;52790.97;5107996;28;20209;-83
2022/12/04 05:24:42;;;;;;;22.73;9.40;;;;;;;-145.69;100.00;52745.41;5107822;28;20198;-83
2022/12/04 05:27:09;;;;;;;23.33;9.50;;;;;;;-145.69;100.00;52792.94;5105899;28;20640;-82
2022/12/04 05:29:35;;;;;;;24.07;9.33;;;;;;;-145.69;100.00;52765.22;5105641;28;20209;-82
2022/12/04 05:32:02;;;;;;;26.13;9.40;;;;;;;-145.69;100.00;52737.50;5105953;28;20648;-83
2022/12/04 05:34:30;;;;;;;22.00;8.37;;;;;;;-145.69;100.00;52769.19;5105084;28;20226;-83
2022/12/04 05:36:57;;;;;;;21.73;9.17;;;;;;;-145.69;100.00;52781.06;5107120;28;20293;-83
2022/12/04 05:39:24;;;;;;;26.83;9.40;;;;;;;-145.69;100.00;52757.31;5107957;28;20198;-83
2022/12/04 05:41:50;;;;;;;22.03;8.57;;;;;;;-145.69;100.00;52735.50;5108493;28;20683;-83
2022/12/04 05:44:17;;;;;;;22.40;9.43;;;;;;;-145.69;100.00;52755.31;5108020;28;20210;-83
2022/12/04 05:46:43;;;;;;;22.20;9.13;;;;;;;-145.69;100.00;52785.03;5106400;28;20565;-83
2022/12/04 05:49:10;;;;;;;26.37;9.97;;;;;;;-145.69;100.00;52777.09;5105668;28;20732;-83
2022/12/04 05:51:38;;;;;;;22.07;8.57;;;;;;;-145.69;100.00;52755.31;5106474;28;20225;-83
2022/12/04 05:54:04;;;;;;;20.93;8.33;;;;;;;-145.69;100.00;52749.38;5106099;28;20221;-83
2022/12/04 05:56:30;;;;;;;19.17;8.57;;;;;;;-145.69;100.00;52781.06;5106968;28;20212;-83
2022/12/04 05:58:57;;;;;;;21.47;8.97;;;;;;;-145.69;100.00;52757.31;5104694;28;20214;-83
2022/12/04 06:01:24;;;;;;;26.07;9.50;;;;;;;-145.69;100.00;52789.00;5103848;28;20202;-82
2022/12/04 06:03:51;;;;;;;24.40;8.73;;;;;;;-145.69;100.00;52773.16;5103369;28;20706;-83
2022/12/04 06:06:19;;;;;;;21.20;8.77;;;;;;;-145.69;100.00;52761.25;5103317;28;20202;-83
2022/12/04 06:08:48;;;;;;;24.37;9.07;;;;;;;-145.69;100.00;52749.38;5106846;28;20194;-83
2022/12/04 06:11:17;;;;;;;19.77;8.63;;;;;;;-145.69;100.00;52733.53;5106012;28;20232;-82
2022/12/04 06:13:45;;;;;;;21.40;8.87;;;;;;;-145.69;100.00;52769.19;5107070;28;20232;-83
2022/12/04 06:16:14;;;;;;;21.20;8.30;;;;;;;-145.69;100.00;52747.41;5106490;28;20293;-82
2022/12/04 06:18:40;;;;;;;22.60;8.53;;;;;;;-145.69;100.00;52792.94;5106272;28;20689;-82
2022/12/04 06:21:07;;;;;;;21.20;9.40;;;;;;;-145.69;100.00;52747.41;5107551;28;20230;-82
2022/12/04 06:23:34;;;;;;;22.87;9.80;;;;;;;-145.69;100.00;52757.31;5102699;28;20209;-83
2022/12/04 06:26:04;;;;;;;19.97;8.53;;;;;;;-145.69;100.00;52745.41;5105407;28;20228;-83
2022/12/04 06:28:30;;;;;;;25.43;9.67;;;;;;;-145.69;100.00;52727.59;5106822;28;20198;-83
2022/12/04 06:31:01;;;;;;;24.23;9.67;;;;;;;-145.69;100.00;52779.09;5101638;28;20668;-83
2022/12/04 06:33:27;;;;;;;25.93;9.27;;;;;;;-145.69;100.00;52757.31;5095511;28;20202;-82
2022/12/04 06:35:58;;;;;;;22.30;9.17;;;;;;;-145.69;100.00;52777.09;5097800;28;20225;-83
2022/12/04 06:38:25;;;;;;;22.27;9.70;;;;;;;-145.69;100.00;52765.22;5097881;28;20202;-82
2022/12/04 06:40:51;;;;;;;20.90;9.07;;;;;;;-145.69;100.00;52753.34;5096253;28;20204;-82
2022/12/04 06:43:19;;;;;;;22.70;9.67;;;;;;;-145.69;100.00;52794.94;5096291;28;20226;-82
2022/12/04 06:45:45;;;;;;;21.20;8.47;;;;;;;-145.69;100.00;52753.34;5097118;28;20194;-83
2022/12/04 06:48:12;;;;;;;22.03;9.00;;;;;;;-145.69;100.00;52765.22;5103183;28;20198;-83
2022/12/04 06:50:38;;;;;;;22.63;9.10;;;;;;;-145.69;100.00;52725.63;5104112;28;20194;-83
2022/12/04 06:53:05;;;;;;;21.30;9.47;;;;;;;-145.69;100.00;52771.16;5105653;28;20205;-83
2022/12/04 06:55:31;;;;;;;18.70;7.93;;;;;;;-145.69;100.00;52761.25;5102836;28;20580;-83
2022/12/04 06:57:58;;;;;;;23.97;9.10;;;;;;;-145.69;100.00;52725.63;5102403;28;20198;-83
2022/12/04 07:00:26;;;;;;;20.90;9.17;;;;;;;-145.69;100.00;52757.31;5103769;28;20205;-83
2022/12/04 07:02:52;;;;;;;24.00;9.63;;;;;;;-145.69;100.00;52755.31;5103399;28;20194;-83
2022/12/04 07:05:19;;;;;;;24.77;9.37;;;;;;;-145.69;100.00;52753.34;5103825;28;20198;-83
2022/12/04 07:07:45;;;;;;;21.00;9.30;;;;;;;-145.69;100.00;52755.31;5103116;28;20224;-83
2022/12/04 07:10:12;;;;;;;20.50;9.00;;;;;;;-145.69;100.00;52773.16;5098196;28;20194;-84
2022/12/04 07:12:38;;;;;;;22.60;9.30;;;;;;;-145.69;100.00;52765.22;5095281;28;20209;-83
2022/12/04 07:15:06;;;;;;;20.27;8.33;;;;;;;-145.69;100.00;52777.09;5095809;28;20229;-83
2022/12/04 07:17:34;;;;;;;24.30;9.57;;;;;;;-145.69;100.00;52763.25;5095639;28;20553;-83
2022/12/04 07:20:00;;;;;;;19.97;9.00;;;;;;;-145.69;100.00;52789.00;5094318;28;20198;-83
2022/12/04 07:22:27;;;;;;;24.80;9.00;;;;;;;-145.69;100.00;52741.47;5095701;28;20202;-84
2022/12/04 07:24:53;;;;;;;21.83;8.90;;;;;;;-145.69;100.00;52765.22;5094094;28;20632;-84
2022/12/04 07:27:20;;;;;;;22.27;8.77;;;;;;;-145.69;100.00;52737.50;5094280;28;20198;-84
2022/12/04 07:29:46;;;;;;;18.63;8.23;;;;;;;-145.69;100.00;52773.16;5094141;28;20209;-83
2022/12/04 07:32:13;;;;;;;25.10;9.07;;;;;;;-145.69;100.00;52725.63;5097185;28;20206;-82
2022/12/04 07:34:41;;;;;;;17.83;7.83;;;;;;;-145.69;100.00;52759.28;5096769;28;20241;-82
2022/12/04 07:37:07;;;;;;;21.93;8.13;;;;;;;-145.69;100.00;52769.19;5095046;28;20209;-83
2022/12/04 07:39:34;;;;;;;18.87;8.33;;;;;;;-145.69;100.00;52741.47;5095792;28;20202;-82
2022/12/04 07:42:00;;;;;;;23.53;9.17;;;;;;;-145.69;100.00;52739.47;5098389;28;20561;-83
2022/12/04 07:44:27;;;;;;;23.20;10.40;;;;;;;-145.69;100.00;52733.53;5100876;28;20546;-83
2022/12/04 07:46:53;;;;;;;18.43;9.27;;;;;;;-145.69;100.00;52749.38;5099825;28;20198;-83
2022/12/04 07:49:20;;;;;;;21.27;8.73;;;;;;;-145.69;100.00;52753.34;5099995;28;20209;-83
2022/12/04 07:51:47;;;;;;;21.43;9.77;;;;;;;-145.69;100.00;52759.28;5100032;28;20212;-83
2022/12/04 07:54:14;;;;;;;35.83;13.90;;;;;;;-145.69;100.00;52741.47;5100407;28;20222;-82
2022/12/04 07:56:40;;;;;;;28.43;12.13;;;;;;;-145.69;100.00;52743.44;5099997;28;20206;-83
2022/12/04 07:59:07;;;;;;;30.13;12.70;;;;;;;-145.69;100.00;52747.41;5099759;28;20194;-83
2022/12/04 08:01:33;;;;;;;39.10;14.30;;;;;;;-145.69;100.00;52757.31;5099477;28;20208;-83
2022/12/04 08:04:02;;;;;;;38.67;15.83;;;;;;;-145.69;100.00;52749.38;5098898;28;20607;-83
2022/12/04 08:06:29;;;;;;;28.00;11.07;;;;;;;-145.69;100.00;52759.28;5101524;28;20584;-82
2022/12/04 08:08:57;;;;;;;39.33;15.07;;;;;;;-145.69;100.00;52757.31;5102951;28;20206;-83
2022/12/04 08:11:25;;;;;;;37.63;13.83;;;;;;;-145.69;100.00;52747.41;5102893;28;20625;-83
2022/12/04 08:13:54;;;;;;;27.73;11.37;;;;;;;-145.69;100.00;52755.31;5102183;28;20221;-82
2022/12/04 08:16:21;;;;;;;25.77;11.23;;;;;;;-145.69;100.00;52749.38;5102279;28;20198;-83
2022/12/04 08:18:47;;;;;;;25.30;10.47;;;;;;;-145.69;100.00;52765.22;5104233;28;20206;-83
2022/12/04 08:21:16;;;;;;;27.20;9.80;;;;;;;-145.69;100.00;52765.22;5104827;28;20205;-82
2022/12/04 08:23:43;;;;;;;30.13;10.40;;;;;;;-145.69;100.00;52765.22;5098534;28;20592;-83
2022/12/04 08:26:12;;;;;;;27.00;9.77;;;;;;;-145.69;100.00;52753.34;5098488;28;20198;-81
2022/12/04 08:28:40;;;;;;;23.97;11.20;;;;;;;-145.69;100.00;52773.16;5100577;28;20301;-84
2022/12/04 08:31:08;;;;;;;24.87;9.80;;;;;;;-145.69;100.00;52753.34;5099856;28;20202;-83
2022/12/04 08:33:35;;;;;;;23.97;9.73;;;;;;;-145.69;100.00;52753.34;5101223;28;20224;-86
2022/12/04 08:36:05;;;;;;;27.17;10.13;;;;;;;-145.69;100.00;52765.22;5098398;28;20241;-84
2022/12/04 08:38:31;;;;;;;25.63;9.70;;;;;;;-145.69;100.00;52745.41;5098361;28;20206;-83
2022/12/04 08:40:59;;;;;;;24.47;10.67;;;;;;;-145.69;100.00;52773.16;5096730;28;20190;-84
2022/12/04 08:43:27;;;;;;;21.83;9.40;;;;;;;-145.69;100.00;52779.09;5097963;28;20209;-85
2022/12/04 08:45:57;;;;;;;23.40;9.97;;;;;;;-145.69;100.00;52775.13;5098933;28;20205;-83
2022/12/04 08:48:24;;;;;;;25.33;10.80;;;;;;;-145.69;100.00;52739.47;5096534;28;20190;-83
2022/12/04 08:50:50;;;;;;;24.30;10.47;;;;;;;-145.69;100.00;52727.59;5096182;28;20198;-82
2022/12/04 08:53:17;;;;;;;27.95;10.57;;;;;;;-145.69;100.00;52737.50;5095996;28;20443;-82
2022/12/04 08:55:44;;;;;;;26.73;10.73;;;;;;;-145.69;100.00;52725.63;5095873;28;20233;-83
2022/12/04 08:58:10;;;;;;;24.33;10.40;;;;;;;-145.69;100.00;52729.56;5096261;28;20198;-82
2022/12/04 09:00:38;;;;;;;22.33;9.90;;;;;;;-145.69;100.00;52745.41;5095768;28;20190;-82
2022/12/04 09:03:05;;;;;;;27.07;10.60;;;;;;;-145.69;100.00;52725.63;5095915;28;20198;-82
2022/12/04 09:05:32;;;;;;;20.80;9.87;;;;;;;-145.69;100.00;52755.31;5095855;28;20204;-82
2022/12/04 09:07:58;;;;;;;22.87;9.47;;;;;;;-145.69;100.00;52733.53;5095528;28;20209;-82
2022/12/04 09:10:25;;;;;;;22.90;10.13;;;;;;;-145.69;100.00;52763.25;5095583;28;20186;-83
2022/12/04 09:12:52;;;;;;;21.50;9.87;;;;;;;-145.69;100.00;52733.53;5095794;28;20198;-83
2022/12/04 09:15:18;;;;;;;23.27;10.00;;;;;;;-145.69;100.00;52761.25;5095344;28;20226;-82
2022/12/04 09:17:46;;;;;;;24.03;10.10;;;;;;;-145.69;100.00;52725.63;5095560;28;20198;-83
2022/12/04 09:20:13;;;;;;;22.07;9.10;;;;;;;-145.69;100.00;52741.47;5095492;28;20201;-82
2022/12/04 09:22:40;;;;;;;23.10;10.40;;;;;;;-145.69;100.00;52741.47;5095191;28;20285;-83
2022/12/04 09:25:07;;;;;;;21.97;9.50;;;;;;;-145.69;100.00;52745.41;5095310;28;20565;-83
2022/12/04 09:27:36;;;;;;;18.33;8.63;;;;;;;-145.69;100.00;52773.16;5095573;28;20202;-83
2022/12/04 09:30:02;;;;;;;19.57;8.80;;;;;;;-145.69;100.00;52737.50;5095148;28;20729;-83
2022/12/04 09:32:28;;;;;;;22.23;9.37;;;;;;;-145.69;100.00;52745.41;5095257;28;20205;-83
2022/12/04 09:34:56;;;;;;;22.53;9.27;;;;;;;-145.69;100.00;52729.56;5094878;28;20284;-83
2022/12/04 09:37:23;;;;;;;21.30;8.43;;;;;;;-145.69;100.00;52719.66;5095065;28;20202;-83
2022/12/04 09:39:49;;;;;;;22.30;9.13;;;;;;;-145.69;100.00;52757.31;5094938;28;20241;-82
2022/12/04 09:42:35;;;;;;;24.17;10.87;;;;;;;-145.69;100.00;52753.34;5094088;28;20190;-83
2022/12/04 09:45:10;;;;;;;27.30;11.10;;;;;;;-145.69;100.00;52749.38;5095034;28;20194;-82
2022/12/04 09:47:42;;;;;;;34.80;12.07;;;;;;;-145.69;100.00;52749.38;5094889;28;20197;-83
2022/12/04 09:50:16;;;;;;;30.20;12.07;;;;;;;-145.69;100.00;52743.44;5094873;28;20201;-83
2022/12/04 09:52:50;;;;;;;31.97;13.00;;;;;;;-145.69;100.00;52743.44;5094847;28;20194;-82
2022/12/04 09:55:22;;;;;;;41.53;14.23;;;;;;;-145.69;100.00;52759.28;5094844;28;20720;-82
2022/12/04 09:57:52;;;;;;;37.87;13.93;;;;;;;-145.69;100.00;52753.34;5094842;28;20205;-83
2022/12/04 10:00:21;;;;;;;40.83;14.30;;;;;;;-145.69;100.00;52743.44;5094353;28;20194;-83
2022/12/04 10:02:52;;;;;;;43.30;15.43;;;;;;;-145.69;100.00;52745.41;5094780;28;20202;-82
2022/12/04 10:05:36;;;;;;;38.37;14.30;;;;;;;-145.69;100.00;52773.16;5094912;28;20202;-83
2022/12/04 10:08:09;;;;;;;40.00;14.03;;;;;;;-145.69;100.00;52729.56;5094614;28;20206;-83
2022/12/04 10:10:39;;;;;;;41.77;13.90;;;;;;;-145.69;100.00;52725.63;5094059;28;20191;-83
2022/12/04 10:13:28;;;;;;;41.20;14.53;;;;;;;-145.69;100.00;52753.34;5094357;28;20685;-83
2022/12/04 10:16:04;;;;;;;42.20;15.33;;;;;;;-145.69;100.00;52765.22;5094129;28;20708;-83
2022/12/04 10:18:46;;;;;;;40.17;13.57;;;;;;;-145.69;100.00;52737.50;5094368;28;20663;-83
2022/12/04 10:21:27;;;;;;;40.50;13.83;;;;;;;-145.69;100.00;52751.34;5094169;28;20208;-83
2022/12/04 10:24:04;;;;;;;43.63;13.77;;;;;;;-145.69;100.00;52757.31;5094891;28;20198;-83
2022/12/04 10:26:36;;;;;;;41.70;15.93;;;;;;;-145.69;100.00;52753.34;5094545;28;20284;-84
2022/12/04 10:29:06;;;;;;;46.50;14.83;;;;;;;-145.69;100.00;52755.31;5093689;28;20206;-83
2022/12/04 10:31:36;;;;;;;37.00;14.30;;;;;;;-145.69;100.00;52721.66;5073909;28;20285;-83
2022/12/04 10:34:07;;;;;;;40.80;15.27;;;;;;;-145.69;100.00;52761.25;5074267;28;20203;-83
2022/12/04 10:36:35;;;;;;;39.57;14.90;;;;;;;-145.69;100.00;52745.41;5074281;28;20593;-84
2022/12/04 10:39:07;;;;;;;36.73;14.00;;;;;;;-145.69;100.00;52761.25;5074275;28;20207;-84
2022/12/04 10:41:40;;;;;;;39.17;13.50;;;;;;;-145.69;100.00;52721.66;5089515;28;20778;-84
2022/12/04 10:44:12;;;;;;;42.87;15.60;;;;;;;-145.69;100.00;52769.19;5093805;28;20226;-84
2022/12/04 10:46:40;;;;;;;44.40;15.17;;;;;;;-145.69;100.00;52733.53;5094561;28;20224;-84
2022/12/04 10:49:16;;;;;;;44.20;14.97;;;;;;;-145.69;100.00;52757.31;5094346;28;20194;-85
2022/12/04 10:51:44;;;;;;;41.53;14.53;;;;;;;-145.69;100.00;52753.34;5094090;28;20672;-84
2022/12/04 10:54:20;;;;;;;34.90;13.90;;;;;;;-145.69;100.00;52749.38;5094279;28;20194;-84
2022/12/04 10:56:51;;;;;;;43.07;14.63;;;;;;;-145.69;100.00;52727.59;5094551;28;20229;-83
2022/12/04 10:59:17;;;;;;;47.53;15.20;;;;;;;-145.69;100.00;52785.03;5094173;28;20251;-84
2022/12/04 11:01:44;;;;;;;46.53;15.47;;;;;;;-145.69;100.00;52761.25;5093887;28;20653;-83
2022/12/04 11:04:22;;;;;;;44.53;15.43;;;;;;;-145.69;100.00;52777.09;5093933;28;20209;-83
2022/12/04 11:06:50;;;;;;;46.80;14.93;;;;;;;-145.69;100.00;52737.50;5093849;28;20197;-83
2022/12/04 11:09:23;;;;;;;45.20;15.20;;;;;;;-145.69;100.00;52745.41;5093940;28;20198;-83
2022/12/04 11:11:50;;;;;;;46.17;15.67;;;;;;;-145.69;100.00;52779.09;5093573;28;20205;-85
2022/12/04 11:14:19;;;;;;;44.90;15.60;;;;;;;-145.69;100.00;52737.50;5094147;28;20201;-84
2022/12/04 11:16:48;;;;;;;52.40;17.77;;;;;;;-145.69;100.00;52765.22;5093622;28;20229;-84
2022/12/04 11:19:20;;;;;;;45.37;15.07;;;;;;;-145.69;100.00;52717.69;5093586;28;20202;-84